sensor_id;sensor_type;location;lat;lon;timestamp;temperature;humidity
31133;DHT22;17779;50.942;4.026;2022-10-26T05:01:03;15.60;99.90
31133;DHT22;17779;50.942;4.026;2022-10-26T05:03:29;15.60;99.90
31133;DHT22;17779;50.942;4.026;2022-10-26T05:05:57;15.50;99.90
31133;DHT22;17779;50.942;4.026;2022-10-26T05:08:23;15.60;99.90
31133;DHT22;17779;50.942;4.026;2022-10-26T05:10:51;15.70;99.90
31133;DHT22;17779;50.942;4.026;2022-10-26T05:13:17;15.70;99.90
31133;DHT22;17779;50.942;4.026;2022-10-26T05:15:42;15.70;99.90
31133;DHT22;17779;50.942;4.026;2022-10-26T05:18:10;15.70;99.90
31133;DHT22;17779;50.942;4.026;2022-10-26T05:20:41;15.90;99.90
31133;DHT22;17779;50.942;4.026;2022-10-26T05:23:09;16.00;99.90
31133;DHT22;17779;50.942;4.026;2022-10-26T05:25:35;15.90;99.90
31133;DHT22;17779;50.942;4.026;2022-10-26T05:28:02;15.80;99.90
31133;DHT22;17779;50.942;4.026;2022-10-26T05:30:30;15.80;99.90
31133;DHT22;17779;50.942;4.026;2022-10-26T05:32:59;15.80;99.90
31133;DHT22;17779;50.942;4.026;2022-10-26T05:35:26;15.70;99.90
31133;DHT22;17779;50.942;4.026;2022-10-26T05:37:53;15.70;99.90
31133;DHT22;17779;50.942;4.026;2022-10-26T05:40:18;15.60;99.90
31133;DHT22;17779;50.942;4.026;2022-10-26T05:42:44;15.60;99.90
31133;DHT22;17779;50.942;4.026;2022-10-26T05:45:10;15.70;99.90
31133;DHT22;17779;50.942;4.026;2022-10-26T05:47:41;15.70;99.90
31133;DHT22;17779;50.942;4.026;2022-10-26T05:50:08;15.70;99.90
31133;DHT22;17779;50.942;4.026;2022-10-26T05:52:41;15.70;99.90
31133;DHT22;17779;50.942;4.026;2022-10-26T05:55:10;15.70;99.90
31133;DHT22;17779;50.942;4.026;2022-10-26T05:57:36;15.70;99.90
31133;DHT22;17779;50.942;4.026;2022-10-26T06:00:06;15.70;99.90
31133;DHT22;17779;50.942;4.026;2022-10-26T06:02:37;15.70;99.90
31133;DHT22;17779;50.942;4.026;2022-10-26T06:05:16;15.80;99.90
31133;DHT22;17779;50.942;4.026;2022-10-26T06:07:44;15.70;99.90
31133;DHT22;17779;50.942;4.026;2022-10-26T06:10:09;15.70;99.90
31133;DHT22;17779;50.942;4.026;2022-10-26T06:12:36;15.70;99.90
31133;DHT22;17779;50.942;4.026;2022-10-26T06:15:04;15.70;99.90
31133;DHT22;17779;50.942;4.026;2022-10-26T06:17:49;15.80;99.90
31133;DHT22;17779;50.942;4.026;2022-10-26T06:23:17;15.70;99.90
31133;DHT22;17779;50.942;4.026;2022-10-26T06:25:55;15.70;99.90
31133;DHT22;17779;50.942;4.026;2022-10-26T06:30:53;15.50;99.90
31133;DHT22;17779;50.942;4.026;2022-10-26T06:33:19;15.50;99.90
31133;DHT22;17779;50.942;4.026;2022-10-26T06:35:51;15.50;99.90
31133;DHT22;17779;50.942;4.026;2022-10-26T06:38:20;15.60;99.90
31133;DHT22;17779;50.942;4.026;2022-10-26T06:40:48;15.60;99.90
31133;DHT22;17779;50.942;4.026;2022-10-26T06:43:26;15.60;99.90
31133;DHT22;17779;50.942;4.026;2022-10-26T06:45:59;15.60;99.90
31133;DHT22;17779;50.942;4.026;2022-10-26T06:48:33;15.60;99.90
31133;DHT22;17779;50.942;4.026;2022-10-26T06:51:01;15.60;99.90
31133;DHT22;17779;50.942;4.026;2022-10-26T06:55:57;15.50;99.90
31133;DHT22;17779;50.942;4.026;2022-10-26T06:58:24;15.50;99.90
31133;DHT22;17779;50.942;4.026;2022-10-26T07:03:22;15.60;99.90
31133;DHT22;17779;50.942;4.026;2022-10-26T07:05:48;15.60;99.90
31133;DHT22;17779;50.942;4.026;2022-10-26T07:08:17;15.60;99.90
31133;DHT22;17779;50.942;4.026;2022-10-26T07:10:43;15.60;99.90
31133;DHT22;17779;50.942;4.026;2022-10-26T07:13:10;15.80;99.90
31133;DHT22;17779;50.942;4.026;2022-10-26T07:15:36;15.70;99.90
31133;DHT22;17779;50.942;4.026;2022-10-26T07:18:05;15.80;99.90
31133;DHT22;17779;50.942;4.026;2022-10-26T07:20:34;15.90;99.90
31133;DHT22;17779;50.942;4.026;2022-10-26T07:23:06;15.90;99.90
31133;DHT22;17779;50.942;4.026;2022-10-26T07:25:33;16.10;99.90
31133;DHT22;17779;50.942;4.026;2022-10-26T07:28:00;16.90;99.90
31133;DHT22;17779;50.942;4.026;2022-10-26T07:30:29;17.80;99.90
31133;DHT22;17779;50.942;4.026;2022-10-26T07:33:01;18.50;99.90
31133;DHT22;17779;50.942;4.026;2022-10-26T07:35:27;18.60;99.90
31133;DHT22;17779;50.942;4.026;2022-10-26T07:37:56;19.30;99.90
31133;DHT22;17779;50.942;4.026;2022-10-26T07:40:25;20.10;99.90
31133;DHT22;17779;50.942;4.026;2022-10-26T07:42:55;20.50;99.90
31133;DHT22;17779;50.942;4.026;2022-10-26T07:47:50;21.20;99.90
31133;DHT22;17779;50.942;4.026;2022-10-26T07:50:15;21.20;99.90
31133;DHT22;17779;50.942;4.026;2022-10-26T07:52:49;21.60;99.90
31133;DHT22;17779;50.942;4.026;2022-10-26T07:55:17;21.10;99.90
31133;DHT22;17779;50.942;4.026;2022-10-26T07:57:46;21.80;99.90
31133;DHT22;17779;50.942;4.026;2022-10-26T08:00:13;22.10;99.90
31133;DHT22;17779;50.942;4.026;2022-10-26T08:02:39;21.90;99.90
31133;DHT22;17779;50.942;4.026;2022-10-26T08:05:05;22.20;99.90
31133;DHT22;17779;50.942;4.026;2022-10-26T08:07:31;22.70;99.90
31133;DHT22;17779;50.942;4.026;2022-10-26T08:09:56;22.60;99.90
31133;DHT22;17779;50.942;4.026;2022-10-26T08:12:22;22.90;99.90
31133;DHT22;17779;50.942;4.026;2022-10-26T08:14:48;23.00;99.90
31133;DHT22;17779;50.942;4.026;2022-10-26T08:17:14;23.90;99.90
31133;DHT22;17779;50.942;4.026;2022-10-26T08:19:40;24.80;99.90
31133;DHT22;17779;50.942;4.026;2022-10-26T08:24:36;22.60;99.90
31133;DHT22;17779;50.942;4.026;2022-10-26T08:27:03;23.00;99.90
31133;DHT22;17779;50.942;4.026;2022-10-26T08:29:29;23.40;99.90
31133;DHT22;17779;50.942;4.026;2022-10-26T08:31:55;24.20;99.90
31133;DHT22;17779;50.942;4.026;2022-10-26T08:34:23;24.80;99.90
31133;DHT22;17779;50.942;4.026;2022-10-26T08:36:48;24.90;99.90
31133;DHT22;17779;50.942;4.026;2022-10-26T08:39:14;24.30;99.90
31133;DHT22;17779;50.942;4.026;2022-10-26T08:41:45;24.70;99.90
31133;DHT22;17779;50.942;4.026;2022-10-26T08:49:24;24.60;99.90
31133;DHT22;17779;50.942;4.026;2022-10-26T08:51:52;24.20;99.90
31133;DHT22;17779;50.942;4.026;2022-10-26T08:54:31;23.90;99.90
31133;DHT22;17779;50.942;4.026;2022-10-26T08:56:59;24.10;99.90
31133;DHT22;17779;50.942;4.026;2022-10-26T09:01:53;24.30;99.90
31133;DHT22;17779;50.942;4.026;2022-10-26T09:04:21;24.50;99.90
31133;DHT22;17779;50.942;4.026;2022-10-26T09:07:35;24.00;99.90
31133;DHT22;17779;50.942;4.026;2022-10-26T09:09:40;23.80;99.90
31133;DHT22;17779;50.942;4.026;2022-10-26T09:25:26;26.60;99.90
31133;DHT22;17779;50.942;4.026;2022-10-26T09:27:54;25.30;99.90
31133;DHT22;17779;50.942;4.026;2022-10-26T09:30:20;24.80;99.90
31133;DHT22;17779;50.942;4.026;2022-10-26T09:32:51;24.90;99.90
31133;DHT22;17779;50.942;4.026;2022-10-26T09:35:27;25.00;99.90
31133;DHT22;17779;50.942;4.026;2022-10-26T09:38:05;25.20;99.90
31133;DHT22;17779;50.942;4.026;2022-10-26T09:40:39;26.20;99.90
31133;DHT22;17779;50.942;4.026;2022-10-26T09:45:47;25.80;99.90
31133;DHT22;17779;50.942;4.026;2022-10-26T09:48:15;26.00;99.90
31133;DHT22;17779;50.942;4.026;2022-10-26T09:50:47;26.40;99.90
31133;DHT22;17779;50.942;4.026;2022-10-26T09:53:20;26.90;99.90
31133;DHT22;17779;50.942;4.026;2022-10-26T09:55:47;26.50;99.90
31133;DHT22;17779;50.942;4.026;2022-10-26T09:58:16;25.50;99.90
31133;DHT22;17779;50.942;4.026;2022-10-26T10:00:46;26.10;99.90
31133;DHT22;17779;50.942;4.026;2022-10-26T10:03:29;27.40;99.90
31133;DHT22;17779;50.942;4.026;2022-10-26T10:06:17;28.20;99.90
31133;DHT22;17779;50.942;4.026;2022-10-26T10:08:41;27.90;99.90
31133;DHT22;17779;50.942;4.026;2022-10-26T10:11:08;27.40;99.90
31133;DHT22;17779;50.942;4.026;2022-10-26T10:13:34;26.60;99.90
31133;DHT22;17779;50.942;4.026;2022-10-26T10:16:02;27.20;99.90
31133;DHT22;17779;50.942;4.026;2022-10-26T10:18:29;26.30;99.90
31133;DHT22;17779;50.942;4.026;2022-10-26T10:20:58;25.80;99.90
31133;DHT22;17779;50.942;4.026;2022-10-26T10:23:29;25.50;99.90
31133;DHT22;17779;50.942;4.026;2022-10-26T10:25:58;25.50;99.90
31133;DHT22;17779;50.942;4.026;2022-10-26T10:28:25;25.70;99.90
31133;DHT22;17779;50.942;4.026;2022-10-26T10:30:55;25.50;99.90
31133;DHT22;17779;50.942;4.026;2022-10-26T10:33:33;25.40;99.90
31133;DHT22;17779;50.942;4.026;2022-10-26T10:35:59;25.70;99.90
31133;DHT22;17779;50.942;4.026;2022-10-26T10:38:25;24.80;99.90
31133;DHT22;17779;50.942;4.026;2022-10-26T10:40:52;24.10;99.90
31133;DHT22;17779;50.942;4.026;2022-10-26T10:43:18;23.60;99.90
31133;DHT22;17779;50.942;4.026;2022-10-26T10:45:48;23.60;99.90
31133;DHT22;17779;50.942;4.026;2022-10-26T10:48:15;23.40;99.90
31133;DHT22;17779;50.942;4.026;2022-10-26T10:50:58;23.30;99.90
31133;DHT22;17779;50.942;4.026;2022-10-26T10:58:40;24.10;99.90
31133;DHT22;17779;50.942;4.026;2022-10-26T11:01:20;24.30;99.90
31133;DHT22;17779;50.942;4.026;2022-10-26T11:06:24;23.70;99.90
31133;DHT22;17779;50.942;4.026;2022-10-26T11:08:58;23.40;99.90
31133;DHT22;17779;50.942;4.026;2022-10-26T11:11:39;23.00;99.90
31133;DHT22;17779;50.942;4.026;2022-10-26T11:14:17;22.90;99.90
31133;DHT22;17779;50.942;4.026;2022-10-26T11:16:58;23.30;99.90
31133;DHT22;17779;50.942;4.026;2022-10-26T11:19:29;23.50;99.90
31133;DHT22;17779;50.942;4.026;2022-10-26T11:21:58;23.30;99.90
31133;DHT22;17779;50.942;4.026;2022-10-26T11:34:39;22.90;99.90
31133;DHT22;17779;50.942;4.026;2022-10-26T11:45:06;23.50;99.90
31133;DHT22;17779;50.942;4.026;2022-10-26T11:47:45;23.50;99.90
31133;DHT22;17779;50.942;4.026;2022-10-26T11:50:26;22.80;99.90
31133;DHT22;17779;50.942;4.026;2022-10-26T11:52:54;22.70;99.90
31133;DHT22;17779;50.942;4.026;2022-10-26T11:55:22;23.20;99.90
31133;DHT22;17779;50.942;4.026;2022-10-26T11:57:49;23.30;99.90
31133;DHT22;17779;50.942;4.026;2022-10-26T12:00:16;23.00;99.90
31133;DHT22;17779;50.942;4.026;2022-10-26T12:02:42;22.90;99.90
31133;DHT22;17779;50.942;4.026;2022-10-26T12:07:58;23.50;99.90
31133;DHT22;17779;50.942;4.026;2022-10-26T12:10:26;23.60;99.90
31133;DHT22;17779;50.942;4.026;2022-10-26T12:15:32;23.90;99.90
31133;DHT22;17779;50.942;4.026;2022-10-26T12:20:55;24.30;99.90
31133;DHT22;17779;50.942;4.026;2022-10-26T12:24:24;24.80;99.90
31133;DHT22;17779;50.942;4.026;2022-10-26T12:33:58;26.20;99.90
31133;DHT22;17779;50.942;4.026;2022-10-26T12:39:25;25.10;99.90
31133;DHT22;17779;50.942;4.026;2022-10-26T12:41:56;24.30;99.90
31133;DHT22;17779;50.942;4.026;2022-10-26T12:44:33;24.00;99.90
31133;DHT22;17779;50.942;4.026;2022-10-26T12:46:59;24.30;99.90
31133;DHT22;17779;50.942;4.026;2022-10-26T12:52:19;25.10;99.90
31133;DHT22;17779;50.942;4.026;2022-10-26T12:54:53;25.30;99.90
31133;DHT22;17779;50.942;4.026;2022-10-26T12:57:24;25.30;99.90
31133;DHT22;17779;50.942;4.026;2022-10-26T12:59:55;24.80;99.90
31133;DHT22;17779;50.942;4.026;2022-10-26T13:07:45;26.50;99.90
31133;DHT22;17779;50.942;4.026;2022-10-26T13:12:50;25.60;99.90
31133;DHT22;17779;50.942;4.026;2022-10-26T13:15:18;25.80;99.90
31133;DHT22;17779;50.942;4.026;2022-10-26T13:17:51;25.50;99.90
31133;DHT22;17779;50.942;4.026;2022-10-26T13:20:17;25.10;99.90
31133;DHT22;17779;50.942;4.026;2022-10-26T13:22:44;25.60;99.90
31133;DHT22;17779;50.942;4.026;2022-10-26T13:25:23;25.60;99.90
31133;DHT22;17779;50.942;4.026;2022-10-26T13:27:58;25.70;99.90
31133;DHT22;17779;50.942;4.026;2022-10-26T13:30:35;24.60;99.90
31133;DHT22;17779;50.942;4.026;2022-10-26T13:33:07;23.60;99.90
31133;DHT22;17779;50.942;4.026;2022-10-26T13:35:35;23.20;99.90
31133;DHT22;17779;50.942;4.026;2022-10-26T13:38:10;22.80;99.90
31133;DHT22;17779;50.942;4.026;2022-10-26T13:40:37;22.80;99.90
31133;DHT22;17779;50.942;4.026;2022-10-26T13:43:03;22.80;99.90
31133;DHT22;17779;50.942;4.026;2022-10-26T13:45:31;22.30;99.90
31133;DHT22;17779;50.942;4.026;2022-10-26T13:48:01;22.10;99.90
31133;DHT22;17779;50.942;4.026;2022-10-26T13:50:31;22.10;99.90
31133;DHT22;17779;50.942;4.026;2022-10-26T13:53:05;22.40;99.90
31133;DHT22;17779;50.942;4.026;2022-10-26T13:55:33;22.60;99.90
31133;DHT22;17779;50.942;4.026;2022-10-26T14:03:29;22.20;99.90
31133;DHT22;17779;50.942;4.026;2022-10-26T14:05:55;22.30;99.90
31133;DHT22;17779;50.942;4.026;2022-10-26T14:08:20;22.20;99.90
31133;DHT22;17779;50.942;4.026;2022-10-26T14:10:56;22.20;99.90
31133;DHT22;17779;50.942;4.026;2022-10-26T14:13:24;22.30;99.90
31133;DHT22;17779;50.942;4.026;2022-10-26T14:15:52;22.10;99.90
31133;DHT22;17779;50.942;4.026;2022-10-26T14:18:25;22.20;99.90
31133;DHT22;17779;50.942;4.026;2022-10-26T14:20:56;22.40;99.90
31133;DHT22;17779;50.942;4.026;2022-10-26T14:23:26;22.40;99.90
31133;DHT22;17779;50.942;4.026;2022-10-26T14:25:52;22.10;99.90
31133;DHT22;17779;50.942;4.026;2022-10-26T14:28:26;22.00;99.90
31133;DHT22;17779;50.942;4.026;2022-10-26T14:30:52;21.90;99.90
31133;DHT22;17779;50.942;4.026;2022-10-26T14:33:36;21.80;99.90
31133;DHT22;17779;50.942;4.026;2022-10-26T14:36:03;22.00;99.90
31133;DHT22;17779;50.942;4.026;2022-10-26T14:38:31;21.90;99.90
31133;DHT22;17779;50.942;4.026;2022-10-26T14:41:00;21.70;99.90
31133;DHT22;17779;50.942;4.026;2022-10-26T14:43:26;21.60;99.90
31133;DHT22;17779;50.942;4.026;2022-10-26T14:45:52;21.60;99.90
31133;DHT22;17779;50.942;4.026;2022-10-26T14:48:19;21.50;99.90
31133;DHT22;17779;50.942;4.026;2022-10-26T14:50:59;21.50;99.90
31133;DHT22;17779;50.942;4.026;2022-10-26T14:53:33;21.30;99.90
31133;DHT22;17779;50.942;4.026;2022-10-26T14:56:00;21.40;99.90
31133;DHT22;17779;50.942;4.026;2022-10-26T14:58:27;21.40;99.90
31133;DHT22;17779;50.942;4.026;2022-10-26T15:03:37;21.40;99.90
31133;DHT22;17779;50.942;4.026;2022-10-26T15:08:47;21.20;99.90
31133;DHT22;17779;50.942;4.026;2022-10-26T15:11:18;21.10;99.90
31133;DHT22;17779;50.942;4.026;2022-10-26T15:13:44;21.00;99.90
31133;DHT22;17779;50.942;4.026;2022-10-26T15:16:19;21.10;99.90
31133;DHT22;17779;50.942;4.026;2022-10-26T15:18:46;21.20;99.90
31133;DHT22;17779;50.942;4.026;2022-10-26T15:21:23;21.00;99.90
31133;DHT22;17779;50.942;4.026;2022-10-26T15:23:50;20.90;99.90
31133;DHT22;17779;50.942;4.026;2022-10-26T15:26:17;20.90;99.90
31133;DHT22;17779;50.942;4.026;2022-10-26T15:28:43;20.80;99.90
31133;DHT22;17779;50.942;4.026;2022-10-26T15:33:35;20.60;99.90
31133;DHT22;17779;50.942;4.026;2022-10-26T15:36:24;20.60;99.90
31133;DHT22;17779;50.942;4.026;2022-10-26T15:38:49;20.70;99.90
31133;DHT22;17779;50.942;4.026;2022-10-26T15:41:20;20.70;99.90
31133;DHT22;17779;50.942;4.026;2022-10-26T15:43:47;20.70;99.90
31133;DHT22;17779;50.942;4.026;2022-10-26T15:46:13;20.80;99.90
31133;DHT22;17779;50.942;4.026;2022-10-26T15:48:39;20.80;99.90
31133;DHT22;17779;50.942;4.026;2022-10-26T15:51:05;20.60;99.90
31133;DHT22;17779;50.942;4.026;2022-10-26T15:53:31;20.60;99.90
31133;DHT22;17779;50.942;4.026;2022-10-26T15:55:57;20.50;99.90
31133;DHT22;17779;50.942;4.026;2022-10-26T15:58:24;20.60;99.90
31133;DHT22;17779;50.942;4.026;2022-10-26T16:00:50;20.60;99.90
31133;DHT22;17779;50.942;4.026;2022-10-26T16:03:19;20.60;99.90
31133;DHT22;17779;50.942;4.026;2022-10-26T16:05:46;20.50;99.90
31133;DHT22;17779;50.942;4.026;2022-10-26T16:08:12;20.50;99.90
31133;DHT22;17779;50.942;4.026;2022-10-26T16:10:38;20.50;99.90
31133;DHT22;17779;50.942;4.026;2022-10-26T16:13:04;20.50;99.90
31133;DHT22;17779;50.942;4.026;2022-10-26T16:15:30;20.40;99.90
31133;DHT22;17779;50.942;4.026;2022-10-26T16:17:56;20.30;99.90
31133;DHT22;17779;50.942;4.026;2022-10-26T16:20:23;20.40;99.90
31133;DHT22;17779;50.942;4.026;2022-10-26T16:22:49;20.30;99.90
31133;DHT22;17779;50.942;4.026;2022-10-26T16:25:17;20.20;99.90
31133;DHT22;17779;50.942;4.026;2022-10-26T16:27:43;20.10;99.90
31133;DHT22;17779;50.942;4.026;2022-10-26T16:30:09;19.90;99.90
31133;DHT22;17779;50.942;4.026;2022-10-26T16:32:35;19.90;99.90
31133;DHT22;17779;50.942;4.026;2022-10-26T16:35:00;19.90;99.90
31133;DHT22;17779;50.942;4.026;2022-10-26T16:37:27;19.80;99.90
31133;DHT22;17779;50.942;4.026;2022-10-26T16:39:53;19.70;99.90
31133;DHT22;17779;50.942;4.026;2022-10-26T16:42:19;19.60;99.90
31133;DHT22;17779;50.942;4.026;2022-10-26T16:44:45;19.60;99.90
31133;DHT22;17779;50.942;4.026;2022-10-26T16:47:12;19.40;99.90
31133;DHT22;17779;50.942;4.026;2022-10-26T16:49:38;19.50;99.90
31133;DHT22;17779;50.942;4.026;2022-10-26T16:52:08;19.60;99.90
31133;DHT22;17779;50.942;4.026;2022-10-26T16:54:34;19.60;99.90
31133;DHT22;17779;50.942;4.026;2022-10-26T16:57:00;19.50;99.90
31133;DHT22;17779;50.942;4.026;2022-10-26T16:59:25;19.50;99.90
31133;DHT22;17779;50.942;4.026;2022-10-26T17:01:52;19.50;99.90
31133;DHT22;17779;50.942;4.026;2022-10-26T17:04:17;19.40;99.90
31133;DHT22;17779;50.942;4.026;2022-10-26T17:06:43;19.40;99.90
31133;DHT22;17779;50.942;4.026;2022-10-26T17:09:09;19.40;99.90
31133;DHT22;17779;50.942;4.026;2022-10-26T17:11:34;19.30;99.90
31133;DHT22;17779;50.942;4.026;2022-10-26T17:14:00;19.30;99.90
31133;DHT22;17779;50.942;4.026;2022-10-26T17:16:25;19.40;99.90
31133;DHT22;17779;50.942;4.026;2022-10-26T17:18:51;19.40;99.90
31133;DHT22;17779;50.942;4.026;2022-10-26T17:21:18;19.30;99.90
31133;DHT22;17779;50.942;4.026;2022-10-26T17:23:44;19.40;99.90
31133;DHT22;17779;50.942;4.026;2022-10-26T17:26:11;19.50;99.90
31133;DHT22;17779;50.942;4.026;2022-10-26T17:28:36;19.60;99.90
31133;DHT22;17779;50.942;4.026;2022-10-26T17:31:06;19.70;99.90
31133;DHT22;17779;50.942;4.026;2022-10-26T17:33:32;19.80;99.90
31133;DHT22;17779;50.942;4.026;2022-10-26T17:35:59;19.60;99.90
31133;DHT22;17779;50.942;4.026;2022-10-26T17:38:35;19.50;99.90
31133;DHT22;17779;50.942;4.026;2022-10-26T17:41:02;19.40;99.90
31133;DHT22;17779;50.942;4.026;2022-10-26T17:43:32;19.30;99.90
31133;DHT22;17779;50.942;4.026;2022-10-26T17:46:01;19.10;99.90
31133;DHT22;17779;50.942;4.026;2022-10-26T17:48:28;19.20;99.90
31133;DHT22;17779;50.942;4.026;2022-10-26T17:50:56;19.10;99.90
31133;DHT22;17779;50.942;4.026;2022-10-26T17:53:22;19.00;99.90
31133;DHT22;17779;50.942;4.026;2022-10-26T17:55:47;19.00;99.90
31133;DHT22;17779;50.942;4.026;2022-10-26T17:58:13;18.80;99.90
31133;DHT22;17779;50.942;4.026;2022-10-26T18:00:39;18.90;99.90
31133;DHT22;17779;50.942;4.026;2022-10-26T18:03:04;19.10;99.90
31133;DHT22;17779;50.942;4.026;2022-10-26T18:05:30;19.00;99.90
31133;DHT22;17779;50.942;4.026;2022-10-26T18:07:56;18.90;99.90
31133;DHT22;17779;50.942;4.026;2022-10-26T18:10:22;18.70;99.90
31133;DHT22;17779;50.942;4.026;2022-10-26T18:12:48;18.50;99.90
31133;DHT22;17779;50.942;4.026;2022-10-26T18:15:15;18.60;99.90
31133;DHT22;17779;50.942;4.026;2022-10-26T18:17:41;18.70;99.90
31133;DHT22;17779;50.942;4.026;2022-10-26T18:20:08;18.70;99.90
31133;DHT22;17779;50.942;4.026;2022-10-26T18:22:34;18.70;99.90
31133;DHT22;17779;50.942;4.026;2022-10-26T18:25:00;18.60;99.90
31133;DHT22;17779;50.942;4.026;2022-10-26T18:27:26;18.60;99.90
31133;DHT22;17779;50.942;4.026;2022-10-26T18:29:51;18.60;99.90
31133;DHT22;17779;50.942;4.026;2022-10-26T18:32:17;18.50;99.90
31133;DHT22;17779;50.942;4.026;2022-10-26T18:34:44;18.50;99.90
31133;DHT22;17779;50.942;4.026;2022-10-26T18:37:11;18.50;99.90
31133;DHT22;17779;50.942;4.026;2022-10-26T18:39:37;18.60;99.90
31133;DHT22;17779;50.942;4.026;2022-10-26T18:42:03;18.60;99.90
31133;DHT22;17779;50.942;4.026;2022-10-26T18:44:29;18.70;99.90
31133;DHT22;17779;50.942;4.026;2022-10-26T18:46:54;18.60;99.90
31133;DHT22;17779;50.942;4.026;2022-10-26T18:49:21;18.50;99.90
31133;DHT22;17779;50.942;4.026;2022-10-26T18:51:47;18.40;99.90
31133;DHT22;17779;50.942;4.026;2022-10-26T18:54:13;18.50;99.90
31133;DHT22;17779;50.942;4.026;2022-10-26T18:56:40;18.70;99.90
31133;DHT22;17779;50.942;4.026;2022-10-26T18:59:06;18.70;99.90
31133;DHT22;17779;50.942;4.026;2022-10-26T19:01:33;18.60;99.90
31133;DHT22;17779;50.942;4.026;2022-10-26T19:04:00;18.70;99.90
31133;DHT22;17779;50.942;4.026;2022-10-26T19:06:26;18.70;99.90
31133;DHT22;17779;50.942;4.026;2022-10-26T19:08:53;18.80;99.90
31133;DHT22;17779;50.942;4.026;2022-10-26T19:11:19;18.80;99.90
31133;DHT22;17779;50.942;4.026;2022-10-26T19:13:45;18.70;99.90
31133;DHT22;17779;50.942;4.026;2022-10-26T19:16:13;18.60;99.90
31133;DHT22;17779;50.942;4.026;2022-10-26T19:18:39;18.70;99.90
31133;DHT22;17779;50.942;4.026;2022-10-26T19:21:06;18.60;99.90
31133;DHT22;17779;50.942;4.026;2022-10-26T19:23:42;18.60;99.90
31133;DHT22;17779;50.942;4.026;2022-10-26T19:26:11;18.70;99.90
31133;DHT22;17779;50.942;4.026;2022-10-26T19:28:37;18.60;99.90
31133;DHT22;17779;50.942;4.026;2022-10-26T19:31:03;18.60;99.90
31133;DHT22;17779;50.942;4.026;2022-10-26T19:33:29;18.60;99.90
31133;DHT22;17779;50.942;4.026;2022-10-26T19:35:55;18.50;99.90
31133;DHT22;17779;50.942;4.026;2022-10-26T19:38:21;18.50;99.90
31133;DHT22;17779;50.942;4.026;2022-10-26T19:40:47;18.60;99.90
31133;DHT22;17779;50.942;4.026;2022-10-26T19:43:13;18.60;99.90
31133;DHT22;17779;50.942;4.026;2022-10-26T19:45:41;18.60;99.90
31133;DHT22;17779;50.942;4.026;2022-10-26T19:48:06;18.60;99.90
31133;DHT22;17779;50.942;4.026;2022-10-26T19:50:32;18.50;99.90
31133;DHT22;17779;50.942;4.026;2022-10-26T19:52:58;18.40;99.90
31133;DHT22;17779;50.942;4.026;2022-10-26T19:55:24;18.30;99.90
31133;DHT22;17779;50.942;4.026;2022-10-26T19:57:50;18.40;99.90
31133;DHT22;17779;50.942;4.026;2022-10-26T20:00:18;18.40;99.90
31133;DHT22;17779;50.942;4.026;2022-10-26T20:02:44;18.40;99.90
31133;DHT22;17779;50.942;4.026;2022-10-26T20:05:09;18.50;99.90
31133;DHT22;17779;50.942;4.026;2022-10-26T20:10:04;18.60;99.90
31133;DHT22;17779;50.942;4.026;2022-10-26T20:12:29;18.60;99.90
31133;DHT22;17779;50.942;4.026;2022-10-26T20:14:55;18.60;99.90
31133;DHT22;17779;50.942;4.026;2022-10-26T20:17:21;18.60;99.90
31133;DHT22;17779;50.942;4.026;2022-10-26T20:19:47;18.50;99.90
31133;DHT22;17779;50.942;4.026;2022-10-26T20:22:13;18.50;99.90
31133;DHT22;17779;50.942;4.026;2022-10-26T20:24:38;18.40;99.90
31133;DHT22;17779;50.942;4.026;2022-10-26T20:27:04;18.30;99.90
31133;DHT22;17779;50.942;4.026;2022-10-26T20:29:29;18.30;99.90
31133;DHT22;17779;50.942;4.026;2022-10-26T20:31:55;18.30;99.90
31133;DHT22;17779;50.942;4.026;2022-10-26T20:34:22;18.20;99.90
31133;DHT22;17779;50.942;4.026;2022-10-26T20:36:48;18.10;99.90
31133;DHT22;17779;50.942;4.026;2022-10-26T20:39:13;18.20;99.90
31133;DHT22;17779;50.942;4.026;2022-10-26T20:41:40;18.10;99.90
31133;DHT22;17779;50.942;4.026;2022-10-26T20:44:08;18.10;99.90
31133;DHT22;17779;50.942;4.026;2022-10-26T20:46:35;18.00;99.90
31133;DHT22;17779;50.942;4.026;2022-10-26T20:49:01;17.90;99.90
31133;DHT22;17779;50.942;4.026;2022-10-26T20:56:24;18.00;99.90
31133;DHT22;17779;50.942;4.026;2022-10-26T20:58:53;18.00;99.90
31133;DHT22;17779;50.942;4.026;2022-10-26T21:03:54;18.00;99.90
31133;DHT22;17779;50.942;4.026;2022-10-26T21:06:20;17.80;99.90
31133;DHT22;17779;50.942;4.026;2022-10-26T21:08:53;17.70;99.90
31133;DHT22;17779;50.942;4.026;2022-10-26T21:11:20;17.70;99.90
31133;DHT22;17779;50.942;4.026;2022-10-26T21:13:50;17.70;99.90
31133;DHT22;17779;50.942;4.026;2022-10-26T21:16:16;17.60;99.90
31133;DHT22;17779;50.942;4.026;2022-10-26T21:18:42;17.60;99.90
31133;DHT22;17779;50.942;4.026;2022-10-26T21:21:09;17.60;99.90
31133;DHT22;17779;50.942;4.026;2022-10-26T21:23:36;17.60;99.90
31133;DHT22;17779;50.942;4.026;2022-10-26T21:26:02;17.50;99.90
31133;DHT22;17779;50.942;4.026;2022-10-26T21:28:33;17.50;99.90
31133;DHT22;17779;50.942;4.026;2022-10-26T21:31:05;17.50;99.90
31133;DHT22;17779;50.942;4.026;2022-10-26T21:33:31;17.50;99.90
31133;DHT22;17779;50.942;4.026;2022-10-26T21:36:00;17.30;99.90
31133;DHT22;17779;50.942;4.026;2022-10-26T21:38:26;17.20;99.90
31133;DHT22;17779;50.942;4.026;2022-10-26T21:41:06;17.20;99.90
31133;DHT22;17779;50.942;4.026;2022-10-26T21:43:32;17.20;99.90
31133;DHT22;17779;50.942;4.026;2022-10-26T21:45:58;17.10;99.90
31133;DHT22;17779;50.942;4.026;2022-10-26T21:48:28;17.10;99.90
31133;DHT22;17779;50.942;4.026;2022-10-26T21:50:54;17.10;99.90
31133;DHT22;17779;50.942;4.026;2022-10-26T21:53:20;17.00;99.90
31133;DHT22;17779;50.942;4.026;2022-10-26T21:55:46;17.00;99.90
31133;DHT22;17779;50.942;4.026;2022-10-26T21:58:11;16.90;99.90
31133;DHT22;17779;50.942;4.026;2022-10-26T22:00:40;17.00;99.90
31133;DHT22;17779;50.942;4.026;2022-10-26T22:03:06;16.90;99.90
31133;DHT22;17779;50.942;4.026;2022-10-26T22:05:31;16.90;99.90
31133;DHT22;17779;50.942;4.026;2022-10-26T22:07:58;16.90;99.90
31133;DHT22;17779;50.942;4.026;2022-10-26T22:10:24;16.90;99.90
31133;DHT22;17779;50.942;4.026;2022-10-26T22:12:49;16.90;99.90
31133;DHT22;17779;50.942;4.026;2022-10-26T22:15:16;16.90;99.90
31133;DHT22;17779;50.942;4.026;2022-10-26T22:17:42;16.90;99.90
31133;DHT22;17779;50.942;4.026;2022-10-26T22:20:08;16.90;99.90
31133;DHT22;17779;50.942;4.026;2022-10-26T22:22:34;16.80;99.90
31133;DHT22;17779;50.942;4.026;2022-10-26T22:25:00;16.70;99.90
31133;DHT22;17779;50.942;4.026;2022-10-26T22:27:30;16.80;99.90
31133;DHT22;17779;50.942;4.026;2022-10-26T22:29:56;16.80;99.90
31133;DHT22;17779;50.942;4.026;2022-10-26T22:32:22;16.80;99.90
31133;DHT22;17779;50.942;4.026;2022-10-26T22:34:47;16.70;99.90